Time;durP1;ratioP1;P1;durP2;ratioP2;P2;SDS_P1;SDS_P2;PMS_P1;PMS_P2;Temp;Humidity;BMP_temperature;BMP_pressure;BME280_temperature;BME280_humidity;BME280_pressure;Samples;Min_cycle;Max_cycle;Signal;HPM_P1;HPM_P2
2022/07/16 00:03:07;;;;;;;;;;;;;;;17.67;47.31;100470.83;1460738;89;20342;-90
2022/07/16 00:05:33;;;;;;;;;;;;;;;17.59;47.58;100466.43;1440643;89;21277;-91
2022/07/16 00:07:59;;;;;;;;;;;;;;;17.54;47.38;100466.17;1459045;89;20365;-91
2022/07/16 00:10:26;;;;;;;;;;;;;;;17.50;47.86;100468.41;1441182;89;20343;-91
2022/07/16 00:12:53;;;;;;;;;;;;;;;17.46;47.60;100478.34;1458108;89;20853;-91
2022/07/16 00:15:25;;;;;;;;;;;;;;;17.42;47.69;100473.06;1456887;89;20319;-92
2022/07/16 00:19:15;;;;;;;;;;;;;;;17.37;48.00;100474.97;1459463;89;20900;-91
2022/07/16 00:20:21;;;;;;;;;;;;;;;17.35;48.32;100470.34;1438011;89;20326;-91
2022/07/16 00:22:51;;;;;;;;;;;;;;;17.31;48.18;100466.37;1457280;89;21431;-91
2022/07/16 00:25:17;;;;;;;;;;;;;;;17.30;48.30;100471.41;1460340;89;20305;-91
2022/07/16 00:27:43;;;;;;;;;;;;;;;17.27;48.14;100475.29;1440659;89;20305;-92
2022/07/16 00:30:10;;;;;;;;;;;;;;;17.23;48.21;100469.98;1460090;89;21224;-92
2022/07/16 00:32:38;;;;;;;;;;;;;;;17.22;48.18;100469.67;1458000;89;20871;-91
2022/07/16 00:35:05;;;;;;;;;;;;;;;17.19;48.77;100470.57;1459664;89;20863;-92
2022/07/16 00:37:31;;;;;;;;;;;;;;;17.16;48.59;100462.41;1458860;89;20628;-91
2022/07/16 00:39:57;;;;;;;;;;;;;;;17.12;48.43;100465.98;1462964;89;20376;-91
2022/07/16 00:42:23;;;;;;;;;;;;;;;17.10;48.51;100459.98;1439731;89;20305;-92
2022/07/16 00:44:49;;;;;;;;;;;;;;;17.08;48.78;100462.02;1459075;88;20276;-92
2022/07/16 00:47:15;;;;;;;;;;;;;;;17.02;48.68;100460.09;1457562;89;20304;-92
2022/07/16 00:49:41;;;;;;;;;;;;;;;16.99;48.85;100463.67;1459906;89;20298;-90
2022/07/16 00:52:07;;;;;;;;;;;;;;;16.98;49.03;100464.70;1458507;89;20887;-90
2022/07/16 00:54:34;;;;;;;;;;;;;;;16.91;49.35;100465.94;1459720;89;20357;-91
2022/07/16 00:57:01;;;;;;;;;;;;;;;16.90;49.40;100468.30;1459162;89;20931;-91
2022/07/16 00:59:27;;;;;;;;;;;;;;;16.84;49.09;100463.70;1457245;89;20387;-91
2022/07/16 01:01:53;;;;;;;;;;;;;;;16.80;49.63;100467.27;1458648;89;20274;-90
2022/07/16 01:04:22;;;;;;;;;;;;;;;16.79;49.77;100464.25;1460418;89;20282;-91
2022/07/16 01:06:53;;;;;;;;;;;;;;;16.74;50.28;100469.81;1457476;89;20268;-91
2022/07/16 01:12:07;;;;;;;;;;;;;;;16.66;50.46;100468.91;1465545;88;20321;-88
2022/07/16 01:14:33;;;;;;;;;;;;;;;16.61;50.57;100463.29;1468632;88;20282;-90
2022/07/16 01:16:59;;;;;;;;;;;;;;;16.57;50.90;100464.69;1464152;88;20291;-91
2022/07/16 01:19:25;;;;;;;;;;;;;;;16.54;50.75;100459.69;1469209;89;20283;-92
2022/07/16 01:21:55;;;;;;;;;;;;;;;16.54;50.93;100461.53;1466147;89;20875;-91
2022/07/16 01:24:21;;;;;;;;;;;;;;;16.46;51.14;100457.14;1464269;89;20388;-92
2022/07/16 01:26:47;;;;;;;;;;;;;;;16.45;51.41;100458.14;1465146;89;20395;-92
2022/07/16 01:29:13;;;;;;;;;;;;;;;16.42;51.42;100451.83;1463699;88;20283;-91
2022/07/16 01:31:39;;;;;;;;;;;;;;;16.40;51.31;100452.52;1463840;89;20299;-90
2022/07/16 01:37:00;;;;;;;;;;;;;;;16.35;51.54;100457.61;1465307;88;20404;-90
2022/07/16 01:39:27;;;;;;;;;;;;;;;16.31;51.63;100452.29;1461088;89;20328;-91
2022/07/16 01:41:55;;;;;;;;;;;;;;;16.29;51.65;100455.67;1463541;89;20425;-90
2022/07/16 01:44:24;;;;;;;;;;;;;;;16.27;51.90;100455.02;1463203;89;20410;-90
2022/07/16 01:46:53;;;;;;;;;;;;;;;16.26;51.69;100455.53;1466080;88;20395;-89
2022/07/16 01:49:19;;;;;;;;;;;;;;;16.23;51.92;100457.23;1463073;89;20291;-89
2022/07/16 01:51:51;;;;;;;;;;;;;;;16.20;52.06;100454.94;1467687;88;20899;-88
2022/07/16 01:54:17;;;;;;;;;;;;;;;16.16;52.00;100450.95;1466349;88;20369;-89
2022/07/16 01:56:49;;;;;;;;;;;;;;;16.08;52.71;100449.19;1463403;89;20329;-88
2022/07/16 01:59:15;;;;;;;;;;;;;;;16.08;52.54;100449.70;1465102;89;20298;-88
2022/07/16 02:01:41;;;;;;;;;;;;;;;16.04;52.93;100449.76;1464422;89;20305;-87
2022/07/16 02:04:06;;;;;;;;;;;;;;;15.99;52.71;100448.45;1467746;88;20365;-88
2022/07/16 02:06:32;;;;;;;;;;;;;;;15.94;52.69;100442.85;1467114;89;20291;-87
2022/07/16 02:08:58;;;;;;;;;;;;;;;15.93;53.02;100444.35;1464511;89;20373;-88
2022/07/16 02:11:24;;;;;;;;;;;;;;;15.93;52.86;100445.69;1463372;88;20262;-88
2022/07/16 02:13:50;;;;;;;;;;;;;;;15.88;53.16;100445.39;1472439;88;20305;-88
2022/07/16 02:16:17;;;;;;;;;;;;;;;15.87;53.11;100446.42;1472997;88;20304;-88
2022/07/16 02:18:42;;;;;;;;;;;;;;;15.85;52.99;100437.75;1472955;88;20524;-88
2022/07/16 02:21:11;;;;;;;;;;;;;;;15.85;52.75;100440.42;1472474;88;20277;-87
2022/07/16 02:23:36;;;;;;;;;;;;;;;15.79;53.22;100438.83;1470789;88;20336;-87
2022/07/16 02:26:02;;;;;;;;;;;;;;;15.76;53.38;100441.83;1474423;88;20297;-88
2022/07/16 02:28:28;;;;;;;;;;;;;;;15.72;53.54;100439.21;1470400;88;20298;-87
2022/07/16 02:30:55;;;;;;;;;;;;;;;15.69;53.75;100440.91;1469397;88;20282;-88
2022/07/16 02:33:23;;;;;;;;;;;;;;;15.70;53.25;100437.73;1470043;88;20372;-88
2022/07/16 02:35:49;;;;;;;;;;;;;;;15.67;53.64;100440.22;1467505;88;20298;-92
2022/07/16 02:38:15;;;;;;;;;;;;;;;15.66;53.70;100442.58;1467682;88;20313;-88
2022/07/16 02:40:43;;;;;;;;;;;;;;;15.64;53.70;100443.25;1468969;88;20439;-89
2022/07/16 02:43:11;;;;;;;;;;;;;;;15.61;53.77;100442.28;1470725;88;20445;-89
2022/07/16 02:45:39;;;;;;;;;;;;;;;15.56;53.82;100447.31;1471218;88;20380;-88
2022/07/16 02:48:05;;;;;;;;;;;;;;;15.54;53.98;100445.36;1471038;88;21126;-90
2022/07/16 02:50:32;;;;;;;;;;;;;;;15.51;54.23;100447.05;1469459;88;20313;-89
2022/07/16 02:52:58;;;;;;;;;;;;;;;15.48;54.34;100451.41;1472823;88;20789;-89
2022/07/16 02:55:24;;;;;;;;;;;;;;;15.42;54.78;100447.63;1471279;88;20305;-91
2022/07/16 02:57:50;;;;;;;;;;;;;;;15.39;54.97;100453.79;1468369;88;20277;-91
2022/07/16 03:00:17;;;;;;;;;;;;;;;15.35;54.81;100458.15;1469846;88;20909;-90
2022/07/16 03:02:49;;;;;;;;;;;;;;;15.35;54.87;100464.81;1470356;88;20383;-90
2022/07/16 03:05:15;;;;;;;;;;;;;;;15.33;55.01;100462.85;1472481;88;20493;-90
2022/07/16 03:07:41;;;;;;;;;;;;;;;15.30;55.13;100460.52;1468201;88;20306;-89
2022/07/16 03:10:09;;;;;;;;;;;;;;;15.30;55.04;100464.52;1469758;88;20372;-90
2022/07/16 03:12:35;;;;;;;;;;;;;;;15.29;55.10;100457.53;1470052;88;20446;-90
2022/07/16 03:15:03;;;;;;;;;;;;;;;15.27;55.16;100460.87;1471576;88;20412;-90
2022/07/16 03:17:31;;;;;;;;;;;;;;;15.24;55.35;100458.56;1470767;88;20298;-89
2022/07/16 03:19:57;;;;;;;;;;;;;;;15.22;54.69;100460.59;1469135;88;20268;-89
2022/07/16 03:22:25;;;;;;;;;;;;;;;15.20;55.14;100463.11;1467871;88;20381;-89
2022/07/16 03:24:51;;;;;;;;;;;;;;;15.20;55.05;100467.93;1470687;88;20864;-89
2022/07/16 03:27:17;;;;;;;;;;;;;;;15.16;55.17;100458.61;1470715;88;20390;-90
2022/07/16 03:29:42;;;;;;;;;;;;;;;15.13;55.51;100460.30;1470099;88;20365;-90
2022/07/16 03:32:08;;;;;;;;;;;;;;;15.13;55.67;100465.62;1471804;88;20312;-90
2022/07/16 03:34:35;;;;;;;;;;;;;;;15.14;56.86;100465.97;1469865;88;20298;-89
2022/07/16 03:37:01;;;;;;;;;;;;;;;15.13;55.72;100461.63;1468204;88;20297;-89
2022/07/16 03:39:27;;;;;;;;;;;;;;;15.15;55.98;100470.80;1470773;88;20298;-90
2022/07/16 03:41:55;;;;;;;;;;;;;;;15.12;55.88;100465.31;1468665;88;20261;-90
2022/07/16 03:44:21;;;;;;;;;;;;;;;15.17;55.58;100470.95;1472429;88;20313;-90
2022/07/16 03:46:47;;;;;;;;;;;;;;;15.20;56.13;100473.27;1468363;88;20388;-89
2022/07/16 03:49:13;;;;;;;;;;;;;;;15.22;57.37;100471.73;1471012;88;20328;-90
2022/07/16 03:51:40;;;;;;;;;;;;;;;15.25;57.12;100477.56;1474841;88;20343;-91
2022/07/16 03:54:06;;;;;;;;;;;;;;;15.24;56.22;100475.89;1474858;88;21637;-90
2022/07/16 03:56:32;;;;;;;;;;;;;;;15.20;56.19;100469.27;1469591;88;20269;-90
2022/07/16 03:58:58;;;;;;;;;;;;;;;15.22;56.38;100475.26;1472573;88;20432;-90
2022/07/16 04:01:24;;;;;;;;;;;;;;;15.24;55.91;100471.89;1470084;88;20261;-90
2022/07/16 04:03:50;;;;;;;;;;;;;;;15.28;55.56;100473.22;1472737;88;20284;-90
2022/07/16 04:06:17;;;;;;;;;;;;;;;15.28;55.84;100475.88;1471462;88;20420;-89
2022/07/16 04:08:43;;;;;;;;;;;;;;;15.28;55.58;100481.21;1468537;88;20283;-90
2022/07/16 04:11:09;;;;;;;;;;;;;;;15.31;55.92;100471.52;1469721;88;20305;-90
2022/07/16 04:13:39;;;;;;;;;;;;;;;15.36;56.35;100473.64;1469832;89;20364;-90
2022/07/16 04:16:11;;;;;;;;;;;;;;;15.42;56.13;100474.77;1467856;89;21529;-88
2022/07/16 04:18:38;;;;;;;;;;;;;;;15.45;56.12;100479.74;1469264;88;20916;-88
2022/07/16 04:21:05;;;;;;;;;;;;;;;15.52;55.85;100476.70;1470034;89;20313;-88
2022/07/16 04:23:32;;;;;;;;;;;;;;;15.60;56.08;100477.98;1470336;88;20320;-91
2022/07/16 04:25:58;;;;;;;;;;;;;;;15.69;55.56;100481.44;1470092;89;20284;-90
2022/07/16 04:28:25;;;;;;;;;;;;;;;15.74;55.21;100485.23;1470131;89;20313;-91
2022/07/16 04:30:51;;;;;;;;;;;;;;;15.85;55.51;100483.12;1465154;89;20402;-89
2022/07/16 04:33:17;;;;;;;;;;;;;;;15.95;55.33;100489.05;1469643;89;20358;-90
2022/07/16 04:35:44;;;;;;;;;;;;;;;16.03;55.06;100486.31;1468455;88;20284;-89
2022/07/16 04:38:11;;;;;;;;;;;;;;;16.14;54.38;100485.86;1467269;89;20811;-91
2022/07/16 04:40:37;;;;;;;;;;;;;;;16.27;54.16;100488.41;1468840;89;20380;-92
2022/07/16 04:43:03;;;;;;;;;;;;;;;16.42;54.63;100494.05;1468398;89;20307;-88
2022/07/16 04:45:29;;;;;;;;;;;;;;;16.51;53.42;100489.96;1466468;88;20288;-85
2022/07/16 04:47:55;;;;;;;;;;;;;;;16.61;52.76;100489.19;1471074;88;20283;-85
2022/07/16 04:50:21;;;;;;;;;;;;;;;16.73;52.78;100490.88;1470478;88;20327;-85
2022/07/16 04:52:47;;;;;;;;;;;;;;;16.83;51.58;100492.77;1470624;88;21385;-86
2022/07/16 04:55:13;;;;;;;;;;;;;;;16.94;52.08;100489.61;1469334;88;20291;-85
2022/07/16 04:57:39;;;;;;;;;;;;;;;17.08;51.85;100484.73;1468930;88;20282;-85
2022/07/16 05:00:06;;;;;;;;;;;;;;;17.19;50.34;100490.11;1471768;88;20388;-85
2022/07/16 05:05:19;;;;;;;;;;;;;;;17.48;50.81;100497.20;1466546;88;20517;-85
2022/07/16 05:07:44;;;;;;;;;;;;;;;17.62;49.72;100502.69;1471990;88;20297;-84
2022/07/16 05:10:11;;;;;;;;;;;;;;;17.75;48.99;100496.09;1468473;88;20246;-85
2022/07/16 05:12:37;;;;;;;;;;;;;;;17.94;49.86;100496.81;1467486;87;20427;-85
2022/07/16 05:15:03;;;;;;;;;;;;;;;18.14;49.19;100504.17;1484023;87;20411;-85
2022/07/16 05:17:31;;;;;;;;;;;;;;;18.24;47.59;100499.28;1484863;87;21446;-84
2022/07/16 05:19:57;;;;;;;;;;;;;;;18.35;47.22;100504.61;1483542;87;20858;-85
2022/07/16 05:22:24;;;;;;;;;;;;;;;18.43;47.52;100499.92;1482243;87;20975;-84
2022/07/16 05:24:50;;;;;;;;;;;;;;;18.56;46.83;100503.70;1489711;87;20300;-83
2022/07/16 05:27:16;;;;;;;;;;;;;;;18.62;46.35;100510.97;1484558;87;20478;-85
2022/07/16 05:29:48;;;;;;;;;;;;;;;18.73;47.32;100511.75;1485470;87;20314;-85
2022/07/16 05:32:15;;;;;;;;;;;;;;;18.86;46.67;100516.37;1484808;87;20404;-84
2022/07/16 05:34:46;;;;;;;;;;;;;;;19.03;46.23;100511.48;1478504;87;20300;-84
2022/07/16 05:37:12;;;;;;;;;;;;;;;19.16;45.41;100508.83;1484963;87;20321;-84
2022/07/16 05:39:38;;;;;;;;;;;;;;;19.31;45.33;100506.83;1486452;87;20373;-84
2022/07/16 05:42:05;;;;;;;;;;;;;;;19.41;44.51;100509.62;1483324;87;20427;-83
2022/07/16 05:44:31;;;;;;;;;;;;;;;19.52;45.19;100509.03;1484435;87;20338;-83
2022/07/16 05:46:57;;;;;;;;;;;;;;;19.59;44.40;100511.19;1488459;87;20307;-83
2022/07/16 05:49:23;;;;;;;;;;;;;;;19.63;45.40;100508.95;1487415;87;20366;-82
2022/07/16 05:51:52;;;;;;;;;;;;;;;19.70;44.39;100507.94;1483567;87;20329;-83
2022/07/16 05:54:18;;;;;;;;;;;;;;;19.83;44.91;100510.64;1481578;87;20322;-82
2022/07/16 05:56:44;;;;;;;;;;;;;;;19.97;43.26;100504.76;1478109;87;20314;-83
2022/07/16 05:59:10;;;;;;;;;;;;;;;20.08;43.24;100508.66;1484671;87;20820;-82
2022/07/16 06:01:37;;;;;;;;;;;;;;;20.03;43.04;100513.33;1485534;87;20314;-83
2022/07/16 06:04:04;;;;;;;;;;;;;;;20.04;42.11;100514.14;1486655;87;21028;-82
2022/07/16 06:06:30;;;;;;;;;;;;;;;20.17;42.31;100520.86;1491207;87;20293;-81
2022/07/16 06:08:56;;;;;;;;;;;;;;;20.37;41.63;100519.98;1486596;87;20403;-82
2022/07/16 06:11:23;;;;;;;;;;;;;;;20.59;42.07;100520.59;1487241;87;20291;-82
2022/07/16 06:13:49;;;;;;;;;;;;;;;20.77;42.20;100525.30;1474842;87;20880;-82
2022/07/16 06:16:15;;;;;;;;;;;;;;;20.94;41.49;100525.98;1479343;88;20322;-82
2022/07/16 06:18:42;;;;;;;;;;;;;;;20.87;40.93;100518.96;1479065;88;20865;-82
2022/07/16 06:21:08;;;;;;;;;;;;;;;20.92;40.70;100522.66;1476445;88;20999;-81
2022/07/16 06:23:35;;;;;;;;;;;;;;;21.07;40.20;100518.87;1479775;88;20423;-81
2022/07/16 06:26:00;;;;;;;;;;;;;;;21.31;41.10;100525.37;1479380;88;20916;-81
2022/07/16 06:28:27;;;;;;;;;;;;;;;21.49;39.18;100526.86;1476206;88;20307;-81
2022/07/16 06:30:52;;;;;;;;;;;;;;;21.62;38.84;100527.28;1474329;88;21672;-81
2022/07/16 06:33:18;;;;;;;;;;;;;;;21.71;39.48;100537.27;1474589;88;20298;-81
2022/07/16 06:35:44;;;;;;;;;;;;;;;21.72;40.01;100538.91;1449594;88;20983;-81
2022/07/16 06:38:10;;;;;;;;;;;;;;;21.68;38.78;100536.36;1468661;87;20319;-82
2022/07/16 06:40:36;;;;;;;;;;;;;;;21.77;38.21;100526.44;1465480;87;20409;-80
2022/07/16 06:43:03;;;;;;;;;;;;;;;21.78;37.93;100531.30;1457503;89;20298;-81
2022/07/16 06:45:29;;;;;;;;;;;;;;;21.89;38.74;100530.59;1467899;87;20379;-82
2022/07/16 06:48:19;;;;;;;;;;;;;;;21.96;38.70;100532.72;1459048;87;20313;-81
2022/07/16 06:50:46;;;;;;;;;;;;;;;22.09;37.85;100528.55;1462341;89;21520;-81
2022/07/16 06:53:12;;;;;;;;;;;;;;;22.24;37.45;100522.02;1462135;87;21365;-81
2022/07/16 06:55:40;;;;;;;;;;;;;;;22.25;36.90;100525.03;1468878;87;20319;-81
2022/07/16 06:58:08;;;;;;;;;;;;;;;22.39;37.35;100524.39;1434004;89;20433;-88
2022/07/16 07:00:35;;;;;;;;;;;;;;;22.46;37.05;100521.91;1467755;87;20320;-78
2022/07/16 07:03:01;;;;;;;;;;;;;;;22.55;36.54;100518.92;1464248;87;21127;-80
2022/07/16 07:05:27;;;;;;;;;;;;;;;22.63;36.75;100523.48;1467638;87;20878;-81
2022/07/16 07:07:53;;;;;;;;;;;;;;;22.75;36.01;100528.95;1462926;87;20304;-81
2022/07/16 07:10:25;;;;;;;;;;;;;;;22.78;35.45;100524.45;1467993;87;21385;-82
2022/07/16 07:12:52;;;;;;;;;;;;;;;22.92;36.37;100527.30;1465255;87;21178;-81
2022/07/16 07:15:19;;;;;;;;;;;;;;;23.06;35.54;100527.98;1459220;88;20283;-81
2022/07/16 07:17:45;;;;;;;;;;;;;;;23.16;35.55;100527.44;1464082;89;20268;-81
2022/07/16 07:20:12;;;;;;;;;;;;;;;23.25;35.20;100534.19;1464289;87;21267;-81
2022/07/16 07:22:38;;;;;;;;;;;;;;;23.35;35.44;100534.45;1470405;87;20275;-82
2022/07/16 07:25:06;;;;;;;;;;;;;;;23.41;34.89;100530.83;1458198;89;20425;-81
2022/07/16 07:27:32;;;;;;;;;;;;;;;23.42;34.38;100530.33;1466004;87;20379;-82
2022/07/16 07:29:57;;;;;;;;;;;;;;;23.50;35.61;100527.27;1463120;87;20276;-82
2022/07/16 07:32:23;;;;;;;;;;;;;;;23.63;35.41;100531.14;1451239;87;20281;-81
2022/07/16 07:34:50;;;;;;;;;;;;;;;23.65;34.37;100528.22;1465046;89;20832;-81
2022/07/16 07:37:16;;;;;;;;;;;;;;;23.68;33.94;100521.00;1472526;87;21142;-82
2022/07/16 07:39:42;;;;;;;;;;;;;;;23.72;33.63;100522.73;1467573;87;21201;-82
2022/07/16 07:42:09;;;;;;;;;;;;;;;23.80;34.31;100528.63;1467755;87;21041;-82
2022/07/16 07:44:37;;;;;;;;;;;;;;;23.82;33.52;100533.28;1456970;89;20389;-81
2022/07/16 07:47:04;;;;;;;;;;;;;;;23.74;32.30;100528.73;1451890;89;21629;-82
2022/07/16 07:49:30;;;;;;;;;;;;;;;23.79;32.59;100529.66;1471172;87;20268;-82
2022/07/16 07:51:56;;;;;;;;;;;;;;;24.00;33.50;100531.53;1483760;88;20963;-82
2022/07/16 07:54:26;;;;;;;;;;;;;;;24.04;31.58;100531.34;1470362;88;20370;-82
2022/07/16 07:56:51;;;;;;;;;;;;;;;24.21;33.30;100536.88;1468847;88;20303;-82
2022/07/16 07:59:18;;;;;;;;;;;;;;;24.32;31.96;100526.59;1466816;88;20303;-82
2022/07/16 08:01:44;;;;;;;;;;;;;;;24.35;31.03;100529.36;1472578;88;20355;-82
2022/07/16 08:04:10;;;;;;;;;;;;;;;24.30;31.32;100531.41;1478228;88;21023;-82
2022/07/16 08:06:37;;;;;;;;;;;;;;;24.35;31.76;100538.30;1473988;88;20304;-82
2022/07/16 08:09:03;;;;;;;;;;;;;;;24.47;31.73;100533.72;1557035;88;20259;-82
2022/07/16 08:11:30;;;;;;;;;;;;;;;24.64;31.56;100537.06;1556875;88;20385;-82
2022/07/16 08:13:57;;;;;;;;;;;;;;;24.70;31.80;100531.52;1509169;88;20840;-82
2022/07/16 08:16:23;;;;;;;;;;;;;;;24.69;30.36;100528.53;1544537;89;20338;-82
2022/07/16 08:18:49;;;;;;;;;;;;;;;24.85;31.30;100531.54;1490707;88;20802;-82
2022/07/16 08:21:15;;;;;;;;;;;;;;;24.74;31.14;100530.50;1559393;88;20302;-81
2022/07/16 08:26:28;;;;;;;;;;;;;;;25.09;31.31;100531.77;1499018;87;20427;-82
2022/07/16 08:28:54;;;;;;;;;;;;;;;25.11;29.71;100530.98;1467142;88;20334;-82
2022/07/16 08:31:19;;;;;;;;;;;;;;;25.11;30.64;100524.20;1450044;88;20412;-82
2022/07/16 08:33:45;;;;;;;;;;;;;;;25.18;31.28;100531.70;1467431;88;20521;-82
2022/07/16 08:36:11;;;;;;;;;;;;;;;25.38;31.61;100537.22;1473606;87;20396;-82
2022/07/16 08:38:37;;;;;;;;;;;;;;;25.38;30.84;100539.39;1477018;87;20324;-82
2022/07/16 08:41:04;;;;;;;;;;;;;;;25.48;29.62;100536.03;1483937;86;20979;-82
2022/07/16 08:43:31;;;;;;;;;;;;;;;25.64;30.61;100532.54;1447535;87;20356;-83
2022/07/16 08:45:57;;;;;;;;;;;;;;;25.61;29.50;100533.56;1464392;87;20359;-82
2022/07/16 08:48:24;;;;;;;;;;;;;;;25.70;29.83;100535.34;1468462;87;20412;-82
2022/07/16 08:50:53;;;;;;;;;;;;;;;25.65;29.83;100534.70;1468349;87;20489;-82
2022/07/16 08:53:22;;;;;;;;;;;;;;;25.77;30.46;100527.86;1451486;89;20411;-82
2022/07/16 08:55:51;;;;;;;;;;;;;;;25.87;30.33;100526.17;1457456;87;21045;-82
2022/07/16 08:58:17;;;;;;;;;;;;;;;25.82;29.76;100530.16;1466082;88;20292;-82
2022/07/16 09:00:43;;;;;;;;;;;;;;;25.86;29.91;100529.94;1427902;89;20334;-82
2022/07/16 09:03:13;;;;;;;;;;;;;;;25.98;30.03;100529.03;1466777;88;20307;-82
2022/07/16 09:05:40;;;;;;;;;;;;;;;26.11;30.64;100528.16;1525246;88;20246;-82
2022/07/16 09:08:06;;;;;;;;;;;;;;;26.17;29.51;100530.42;1516965;88;20249;-82
2022/07/16 09:10:37;;;;;;;;;;;;;;;26.21;28.91;100523.95;1552570;88;20238;-82
2022/07/16 09:13:05;;;;;;;;;;;;;;;26.17;28.89;100528.25;1556589;87;20231;-81
2022/07/16 09:15:34;;;;;;;;;;;;;;;26.33;29.88;100526.05;1584985;87;20333;-82
2022/07/16 09:18:15;;;;;;;;;;;;;;;26.44;30.20;100516.99;1447591;87;20251;-81
2022/07/16 09:20:45;;;;;;;;;;;;;;;26.63;30.30;100521.59;1561666;86;20880;-81
2022/07/16 09:23:19;;;;;;;;;;;;;;;26.78;28.25;100520.97;1523986;89;20443;-82
2022/07/16 09:25:50;;;;;;;;;;;;;;;26.65;28.06;100517.28;1533799;87;20335;-81
2022/07/16 09:28:16;;;;;;;;;;;;;;;26.66;29.04;100517.56;1559372;88;20225;-80
2022/07/16 09:30:42;;;;;;;;;;;;;;;26.75;29.74;100517.40;1562211;88;20254;-80
2022/07/16 09:33:17;;;;;;;;;;;;;;;26.74;28.81;100521.20;1562323;88;20269;-80
2022/07/16 09:35:45;;;;;;;;;;;;;;;26.84;28.87;100520.49;1563179;88;20314;-81
2022/07/16 09:38:11;;;;;;;;;;;;;;;26.81;28.59;100510.95;1479478;88;20343;-82
2022/07/16 09:40:41;;;;;;;;;;;;;;;26.81;28.19;100508.23;1562746;88;20317;-82
2022/07/16 09:43:16;;;;;;;;;;;;;;;26.93;28.52;100513.02;1562714;88;20840;-81
2022/07/16 09:45:49;;;;;;;;;;;;;;;27.24;29.43;100503.86;1535939;88;20404;-86
2022/07/16 09:48:23;;;;;;;;;;;;;;;27.33;28.73;100507.74;1570606;87;20249;-82
2022/07/16 09:50:50;;;;;;;;;;;;;;;27.34;28.60;100511.31;1571325;87;20214;-82
2022/07/16 09:53:20;;;;;;;;;;;;;;;27.35;27.95;100512.39;1571055;87;20324;-81
2022/07/16 09:56:06;;;;;;;;;;;;;;;27.28;27.95;100506.91;1565759;87;20251;-83
2022/07/16 09:58:32;;;;;;;;;;;;;;;27.32;28.67;100502.04;1579415;87;21247;-82
2022/07/16 10:01:06;;;;;;;;;;;;;;;27.29;28.65;100499.84;1579678;87;20281;-82
2022/07/16 10:03:36;;;;;;;;;;;;;;;27.29;28.42;100501.20;1466430;87;20251;-82
2022/07/16 10:06:03;;;;;;;;;;;;;;;27.43;27.94;100496.17;1533228;87;20272;-82
2022/07/16 10:08:32;;;;;;;;;;;;;;;27.51;28.51;100486.20;1579945;87;20355;-92
2022/07/16 10:10:58;;;;;;;;;;;;;;;27.62;28.98;100503.39;1485662;87;20251;-90
2022/07/16 10:13:26;;;;;;;;;;;;;;;27.81;28.67;100492.44;1580158;87;20222;-89
2022/07/16 10:15:53;;;;;;;;;;;;;;;27.66;27.98;100496.38;1489787;86;20329;-82
2022/07/16 10:18:43;;;;;;;;;;;;;;;27.78;28.49;100497.55;1590567;86;20802;-91
2022/07/16 10:21:16;;;;;;;;;;;;;;;27.78;27.00;100491.56;1590653;86;20288;-93
2022/07/16 10:23:45;;;;;;;;;;;;;;;27.97;27.91;100493.38;1525085;86;20244;-91
2022/07/16 10:26:19;;;;;;;;;;;;;;;27.99;26.49;100482.22;1511210;88;20235;-91
2022/07/16 10:28:50;;;;;;;;;;;;;;;28.07;27.77;100491.26;1590535;86;20393;-92
2022/07/16 10:34:39;;;;;;;;;;;;;;;27.99;27.43;100487.66;1590584;86;20326;-93
2022/07/16 10:37:08;;;;;;;;;;;;;;;28.02;27.17;100482.52;1463527;86;20414;-91
2022/07/16 10:42:53;;;;;;;;;;;;;;;28.13;27.69;100488.84;1423639;91;20356;-92
2022/07/16 10:45:20;;;;;;;;;;;;;;;28.18;26.94;100491.60;1466205;88;20379;-92
2022/07/16 10:47:48;;;;;;;;;;;;;;;28.13;27.28;100482.86;1469558;88;20379;-92
2022/07/16 10:50:17;;;;;;;;;;;;;;;28.16;26.12;100484.78;1559697;87;20232;-92
2022/07/16 10:52:46;;;;;;;;;;;;;;;28.11;26.68;100475.52;1510044;87;20254;-94
2022/07/16 10:55:14;;;;;;;;;;;;;;;28.11;26.08;100474.70;1478803;87;20332;-93
2022/07/16 10:57:41;;;;;;;;;;;;;;;28.05;26.47;100470.29;1537550;88;20346;-93
2022/07/16 11:00:10;;;;;;;;;;;;;;;28.18;27.13;100473.91;1556409;88;20364;-93
2022/07/16 11:02:41;;;;;;;;;;;;;;;28.15;25.69;100480.44;1436003;88;20297;-91
2022/07/16 11:05:08;;;;;;;;;;;;;;;28.16;26.01;100469.81;1471923;88;20291;-93
2022/07/16 11:07:36;;;;;;;;;;;;;;;28.42;26.52;100473.52;1476745;88;21751;-91
2022/07/16 11:10:03;;;;;;;;;;;;;;;28.41;26.40;100469.95;1478113;86;20355;-92
2022/07/16 11:12:33;;;;;;;;;;;;;;;28.50;26.36;100469.75;1478417;88;20281;-91
2022/07/16 11:15:00;;;;;;;;;;;;;;;28.44;26.20;100472.72;1479944;87;20282;-91
2022/07/16 11:17:29;;;;;;;;;;;;;;;28.25;26.31;100477.20;1484869;87;20379;-91
2022/07/16 11:19:58;;;;;;;;;;;;;;;27.75;26.37;100471.70;1476444;88;20320;-92
2022/07/16 11:22:29;;;;;;;;;;;;;;;27.63;27.12;100472.42;1478248;88;20319;-91
2022/07/16 11:25:00;;;;;;;;;;;;;;;27.75;26.89;100468.98;1480864;88;20297;-92
2022/07/16 11:27:36;;;;;;;;;;;;;;;27.92;26.93;100470.77;1475587;87;21200;-91
2022/07/16 11:30:08;;;;;;;;;;;;;;;27.99;26.12;100472.70;1486538;87;20905;-92
2022/07/16 11:32:45;;;;;;;;;;;;;;;28.19;26.46;100468.74;1476439;88;20335;-91
2022/07/16 11:35:11;;;;;;;;;;;;;;;28.37;26.42;100472.09;1488973;87;20287;-90
2022/07/16 11:37:56;;;;;;;;;;;;;;;28.29;24.88;100470.17;1490787;87;20381;-91
2022/07/16 11:40:37;;;;;;;;;;;;;;;28.39;26.36;100462.59;1480550;87;20520;-90
2022/07/16 11:43:04;;;;;;;;;;;;;;;28.37;27.02;100466.66;1498632;86;20302;-91
2022/07/16 11:45:35;;;;;;;;;;;;;;;28.48;25.82;100457.48;1499003;86;21287;-91
2022/07/16 11:48:09;;;;;;;;;;;;;;;28.67;26.17;100453.21;1481136;86;21003;-91
2022/07/16 11:50:36;;;;;;;;;;;;;;;28.57;24.73;100455.91;1482647;86;20443;-89
2022/07/16 11:53:03;;;;;;;;;;;;;;;28.65;25.44;100461.36;1483021;87;20892;-90
2022/07/16 11:55:30;;;;;;;;;;;;;;;28.52;24.86;100455.89;1501543;86;20972;-89
2022/07/16 11:57:56;;;;;;;;;;;;;;;28.62;25.24;100458.63;1491674;86;20512;-89
2022/07/16 12:00:23;;;;;;;;;;;;;;;28.75;24.63;100450.52;1501001;86;20313;-89
2022/07/16 12:02:52;;;;;;;;;;;;;;;28.84;25.38;100454.91;1483842;86;20357;-90
2022/07/16 12:05:22;;;;;;;;;;;;;;;29.03;24.18;100461.49;1480952;88;20298;-92
2022/07/16 12:07:48;;;;;;;;;;;;;;;29.01;23.80;100449.48;1479941;86;21676;-90
2022/07/16 12:10:16;;;;;;;;;;;;;;;29.04;24.37;100455.52;1487123;86;20305;-89
2022/07/16 12:12:42;;;;;;;;;;;;;;;29.13;24.52;100453.90;1479470;86;20416;-89
2022/07/16 12:15:12;;;;;;;;;;;;;;;29.10;24.57;100459.34;1484109;86;20995;-91
2022/07/16 12:17:40;;;;;;;;;;;;;;;29.28;23.43;100459.91;1494071;86;20275;-89
2022/07/16 12:20:27;;;;;;;;;;;;;;;29.10;23.59;100459.34;1488964;86;20361;-90
2022/07/16 12:23:05;;;;;;;;;;;;;;;29.26;23.17;100455.27;1499221;86;20297;-92
2022/07/16 12:25:38;;;;;;;;;;;;;;;29.17;23.06;100457.16;1508121;86;20832;-89
2022/07/16 12:28:09;;;;;;;;;;;;;;;29.28;23.28;100455.27;1509017;86;20268;-88
2022/07/16 12:30:56;;;;;;;;;;;;;;;29.33;23.82;100451.19;1511670;86;20301;-87
2022/07/16 12:33:26;;;;;;;;;;;;;;;29.09;23.83;100453.63;1484168;87;20810;-88
2022/07/16 12:36:01;;;;;;;;;;;;;;;29.33;23.41;100449.83;1490028;87;20303;-89
2022/07/16 12:39:03;;;;;;;;;;;;;;;29.43;23.87;100456.66;1467291;88;20284;-90
2022/07/16 12:41:41;;;;;;;;;;;;;;;29.43;23.83;100449.00;1507787;86;20875;-88
2022/07/16 12:44:11;;;;;;;;;;;;;;;29.42;23.92;100451.47;1510357;86;20309;-89
2022/07/16 12:46:47;;;;;;;;;;;;;;;29.52;24.11;100452.00;1507638;86;20925;-88
2022/07/16 12:49:16;;;;;;;;;;;;;;;29.58;24.77;100451.75;1507066;86;20846;-87
2022/07/16 12:51:48;;;;;;;;;;;;;;;29.58;24.44;100454.47;1507940;86;20535;-88
2022/07/16 12:54:16;;;;;;;;;;;;;;;29.72;22.98;100452.02;1506916;86;20325;-88
2022/07/16 12:59:28;;;;;;;;;;;;;;;30.46;23.54;100445.03;1484183;87;20304;-87
2022/07/16 13:01:59;;;;;;;;;;;;;;;30.79;23.10;100438.08;1485210;87;20382;-84